createdAt,value
2018-09-16T00:01:49.777Z,13.80
2018-09-16T00:04:20.713Z,13.78
2018-09-16T00:06:51.488Z,13.77
2018-09-16T00:09:22.808Z,13.76
2018-09-16T00:11:53.581Z,13.76
2018-09-16T00:14:24.890Z,13.75
2018-09-16T00:16:55.655Z,13.73
2018-09-16T00:19:26.580Z,13.69
2018-09-16T00:21:57.454Z,13.61
2018-09-16T00:24:28.954Z,13.63
2018-09-16T00:26:59.647Z,13.59
2018-09-16T00:29:31.175Z,13.57
2018-09-16T00:32:05.882Z,13.56
2018-09-16T00:34:35.781Z,13.54
2018-09-16T00:37:10.273Z,13.56
2018-09-16T00:39:40.217Z,13.56
2018-09-16T00:42:10.456Z,13.56
2018-09-16T00:44:40.249Z,13.58
2018-09-16T00:47:10.196Z,13.56
2018-09-16T00:49:40.076Z,13.53
2018-09-16T00:52:10.566Z,13.55
2018-09-16T00:54:40.288Z,13.54
2018-09-16T00:57:10.826Z,13.53
2018-09-16T00:59:41.712Z,13.53
2018-09-16T01:02:11.708Z,13.53
2018-09-16T01:04:42.646Z,13.52
2018-09-16T01:07:13.474Z,13.52
2018-09-16T01:09:44.826Z,13.48
2018-09-16T01:12:15.573Z,13.47
2018-09-16T01:14:47.516Z,13.45
2018-09-16T01:17:17.415Z,13.43
2018-09-16T01:19:49.343Z,13.40
2018-09-16T01:22:20.233Z,13.39
2018-09-16T01:24:50.718Z,13.37
2018-09-16T01:27:21.824Z,13.35
2018-09-16T01:29:52.594Z,13.33
2018-09-16T01:32:23.491Z,13.31
2018-09-16T01:34:54.700Z,13.30
2018-09-16T01:37:30.512Z,13.28
2018-09-16T01:40:00.358Z,13.25
2018-09-16T01:42:30.343Z,13.23
2018-09-16T01:45:00.347Z,13.21
2018-09-16T01:47:30.328Z,13.19
2018-09-16T01:50:00.832Z,13.18
2018-09-16T01:52:31.586Z,13.15
2018-09-16T01:55:02.899Z,13.14
2018-09-16T01:57:33.729Z,13.12
2018-09-16T02:00:04.932Z,13.11
2018-09-16T02:02:35.865Z,13.06
2018-09-16T02:05:06.859Z,13.05
2018-09-16T02:07:38.032Z,13.05
2018-09-16T02:10:18.542Z,13.04
2018-09-16T02:12:49.164Z,13.01
2018-09-16T02:15:20.254Z,13.01
2018-09-16T02:17:50.996Z,12.98
2018-09-16T02:20:21.374Z,12.97
2018-09-16T02:22:51.220Z,12.95
2018-09-16T02:25:21.042Z,12.94
2018-09-16T02:27:51.626Z,12.92
2018-09-16T02:30:21.494Z,12.91
2018-09-16T02:32:51.329Z,12.90
2018-09-16T02:35:21.792Z,12.89
2018-09-16T02:37:51.665Z,12.88
2018-09-16T02:40:21.652Z,12.86
2018-09-16T02:42:51.525Z,12.84
2018-09-16T02:45:23.266Z,12.82
2018-09-16T02:47:53.916Z,12.83
2018-09-16T02:50:24.798Z,12.82
2018-09-16T02:52:56.033Z,12.82
2018-09-16T02:55:26.686Z,12.80
2018-09-16T02:57:59.146Z,12.79
2018-09-16T03:00:28.930Z,12.79
2018-09-16T03:02:59.821Z,12.78
2018-09-16T03:05:35.432Z,12.78
2018-09-16T03:08:05.453Z,12.78
2018-09-16T03:10:35.314Z,12.77
2018-09-16T03:13:05.317Z,12.77
2018-09-16T03:15:35.149Z,12.74
2018-09-16T03:18:05.676Z,12.73
2018-09-16T03:20:36.534Z,12.73
2018-09-16T03:23:07.385Z,12.72
2018-09-16T03:25:39.061Z,12.69
2018-09-16T03:28:09.774Z,12.65
2018-09-16T03:30:40.921Z,12.67
2018-09-16T03:33:11.690Z,12.66
2018-09-16T03:35:42.534Z,12.64
2018-09-16T03:38:14.103Z,12.65
2018-09-16T03:40:44.969Z,12.60
2018-09-16T03:43:15.799Z,12.62
2018-09-16T03:45:46.690Z,12.61
2018-09-16T03:48:17.509Z,12.63
2018-09-16T03:50:48.624Z,12.62
2018-09-16T03:53:19.573Z,12.59
2018-09-16T03:55:50.495Z,12.60
2018-09-16T03:58:21.357Z,12.61
2018-09-16T04:00:52.753Z,12.56
2018-09-16T04:03:23.481Z,12.55
2018-09-16T04:05:54.890Z,12.54
2018-09-16T04:08:25.686Z,12.54
2018-09-16T04:10:56.603Z,12.54
2018-09-16T04:13:27.400Z,12.53
2018-09-16T04:15:58.962Z,12.54
2018-09-16T04:18:29.677Z,12.54
2018-09-16T04:21:00.604Z,12.53
2018-09-16T04:23:43.838Z,12.51
2018-09-16T04:26:14.398Z,12.50
2018-09-16T04:28:44.558Z,12.49
2018-09-16T04:31:15.717Z,12.48
2018-09-16T04:33:45.523Z,12.48
2018-09-16T04:36:15.284Z,12.47
2018-09-16T04:38:45.116Z,12.45
2018-09-16T04:41:15.757Z,12.41
2018-09-16T04:43:45.585Z,12.45
2018-09-16T04:46:15.469Z,12.45
2018-09-16T04:48:45.352Z,12.46
2018-09-16T04:51:15.213Z,12.47
2018-09-16T04:53:45.473Z,12.47
2018-09-16T04:56:15.389Z,12.48
2018-09-16T04:58:46.186Z,12.48
2018-09-16T05:01:16.898Z,12.47
2018-09-16T05:03:47.589Z,12.47
2018-09-16T05:06:18.590Z,12.48
2018-09-16T05:08:49.453Z,12.48
2018-09-16T05:11:20.776Z,12.47
2018-09-16T05:13:51.621Z,12.47
2018-09-16T05:16:22.479Z,12.48
2018-09-16T05:18:53.663Z,12.50
2018-09-16T05:21:25.012Z,12.51
2018-09-16T05:23:55.801Z,12.53
2018-09-16T05:26:26.626Z,12.56
2018-09-16T05:28:57.608Z,12.59
2018-09-16T05:31:28.330Z,12.62
2018-09-16T05:33:58.343Z,12.65
2018-09-16T05:36:29.795Z,12.68
2018-09-16T05:39:00.516Z,12.73
2018-09-16T05:41:31.966Z,12.75
2018-09-16T05:44:03.039Z,12.77
2018-09-16T05:46:33.747Z,12.79
2018-09-16T05:49:04.782Z,12.84
2018-09-16T05:51:35.659Z,12.88
2018-09-16T05:54:06.433Z,12.93
2018-09-16T05:56:37.823Z,12.97
2018-09-16T05:59:09.503Z,13.04
2018-09-16T06:01:39.594Z,13.08
2018-09-16T06:04:10.441Z,13.14
2018-09-16T06:06:41.966Z,13.25
2018-09-16T06:09:14.426Z,13.27
2018-09-16T06:11:44.442Z,13.30
2018-09-16T06:14:14.683Z,13.35
2018-09-16T06:16:46.119Z,13.36
2018-09-16T06:19:16.668Z,13.43
2018-09-16T06:21:48.676Z,13.40
2018-09-16T06:24:18.846Z,13.52
2018-09-16T06:26:49.731Z,13.55
2018-09-16T06:29:20.565Z,13.60
2018-09-16T06:31:51.312Z,13.65
2018-09-16T06:34:21.789Z,13.68
2018-09-16T06:36:52.683Z,13.73
2018-09-16T06:39:23.462Z,13.83
2018-09-16T06:41:54.987Z,13.91
2018-09-16T06:44:25.850Z,13.97
2018-09-16T06:46:56.745Z,14.07
2018-09-16T06:49:27.497Z,14.19
2018-09-16T06:51:58.618Z,14.36
2018-09-16T06:54:29.427Z,14.42
2018-09-16T06:57:00.842Z,14.58
2018-09-16T06:59:31.641Z,14.71
2018-09-16T07:02:02.624Z,14.93
2018-09-16T07:04:33.491Z,15.04
2018-09-16T07:07:04.553Z,15.08
2018-09-16T07:09:35.712Z,15.17
2018-09-16T07:12:06.646Z,15.20
2018-09-16T07:14:38.044Z,15.25
2018-09-16T07:17:08.983Z,15.28
2018-09-16T07:19:39.650Z,15.38
2018-09-16T07:22:10.709Z,15.52
2018-09-16T07:24:41.465Z,15.60
2018-09-16T07:27:12.762Z,15.81
2018-09-16T07:29:43.721Z,16.15
2018-09-16T07:32:14.610Z,16.64
2018-09-16T07:34:46.196Z,16.88
2018-09-16T07:37:16.823Z,17.02
2018-09-16T07:39:46.584Z,17.11
2018-09-16T07:42:17.517Z,17.35
2018-09-16T07:44:48.749Z,17.60
2018-09-16T07:47:19.781Z,17.72
2018-09-16T07:49:50.510Z,17.91
2018-09-16T07:52:21.777Z,18.00
2018-09-16T07:54:52.441Z,18.19
2018-09-16T07:57:23.864Z,18.41
2018-09-16T07:59:54.970Z,18.24
2018-09-16T08:02:25.745Z,18.37
2018-09-16T08:04:56.626Z,18.57
2018-09-16T08:07:27.500Z,18.76
2018-09-16T08:09:58.305Z,18.90
2018-09-16T08:12:29.785Z,18.88
2018-09-16T08:15:00.557Z,18.79
2018-09-16T08:17:31.592Z,18.69
2018-09-16T08:20:02.393Z,18.78
2018-09-16T08:22:39.252Z,18.86
2018-09-16T08:25:09.590Z,19.02
2018-09-16T08:27:39.574Z,19.28
2018-09-16T08:30:09.564Z,19.57
2018-09-16T08:32:39.328Z,19.77
2018-09-16T08:35:09.282Z,19.86
2018-09-16T08:37:39.775Z,19.91
2018-09-16T08:40:09.607Z,20.02
2018-09-16T08:42:40.389Z,20.15
2018-09-16T08:45:11.782Z,20.10
2018-09-16T08:47:42.677Z,20.26
2018-09-16T08:50:13.641Z,20.37
2018-09-16T08:52:44.612Z,20.50
2018-09-16T08:55:15.405Z,20.59
2018-09-16T08:57:46.738Z,20.70
2018-09-16T09:00:17.778Z,20.83
2018-09-16T09:02:48.528Z,20.97
2018-09-16T09:05:19.473Z,20.88
2018-09-16T09:07:50.152Z,20.86
2018-09-16T09:10:20.669Z,20.96
2018-09-16T09:12:51.379Z,21.02
2018-09-16T09:15:23.168Z,21.02
2018-09-16T09:17:53.655Z,21.14
2018-09-16T09:20:24.448Z,21.28
2018-09-16T09:22:55.511Z,21.42
2018-09-16T09:25:26.398Z,21.41
2018-09-16T09:27:57.793Z,21.45
2018-09-16T09:30:28.700Z,21.59
2018-09-16T09:32:59.570Z,21.69
2018-09-16T09:35:30.384Z,21.80
2018-09-16T09:38:01.929Z,21.94
2018-09-16T09:40:32.615Z,21.81
2018-09-16T09:43:03.837Z,21.43
2018-09-16T09:45:34.526Z,21.26
2018-09-16T09:48:05.473Z,21.23
2018-09-16T09:50:36.775Z,21.17
2018-09-16T09:53:07.961Z,21.46
2018-09-16T09:55:38.732Z,21.71
2018-09-16T09:58:09.624Z,21.77
2018-09-16T10:00:45.822Z,21.89
2018-09-16T10:03:15.730Z,21.96
2018-09-16T10:05:45.893Z,22.09
2018-09-16T10:08:16.060Z,22.24
2018-09-16T10:10:46.610Z,22.16
2018-09-16T10:13:16.433Z,22.22
2018-09-16T10:15:46.453Z,22.36
2018-09-16T10:18:18.082Z,22.49
2018-09-16T10:20:48.687Z,22.69
2018-09-16T10:23:19.544Z,22.86
2018-09-16T10:25:50.498Z,22.98
2018-09-16T10:28:20.357Z,23.08
2018-09-16T10:30:51.796Z,23.18
2018-09-16T10:33:22.871Z,23.33
2018-09-16T10:35:54.004Z,23.50
2018-09-16T10:38:25.101Z,23.59
2018-09-16T10:40:55.896Z,23.63
2018-09-16T10:43:27.135Z,23.78
2018-09-16T10:45:57.808Z,24.01
2018-09-16T10:48:28.782Z,24.06
2018-09-16T10:50:59.702Z,24.02
2018-09-16T10:53:30.547Z,24.05
2018-09-16T10:56:01.620Z,23.99
2018-09-16T10:58:33.110Z,24.06
2018-09-16T11:01:03.814Z,24.25
2018-09-16T11:03:35.215Z,24.40
2018-09-16T11:06:05.837Z,24.47
2018-09-16T11:08:36.702Z,24.50
2018-09-16T11:11:08.245Z,24.42
2018-09-16T11:13:38.741Z,24.64
2018-09-16T11:16:18.859Z,24.76
2018-09-16T11:18:48.757Z,24.92
2018-09-16T11:21:19.340Z,25.22
2018-09-16T11:23:49.243Z,25.37
2018-09-16T11:26:19.131Z,25.32
2018-09-16T11:28:49.475Z,25.30
2018-09-16T11:31:19.574Z,25.23
2018-09-16T11:33:49.537Z,25.37
2018-09-16T11:36:19.319Z,25.70
2018-09-16T11:38:50.188Z,25.95
2018-09-16T11:41:20.596Z,26.05
2018-09-16T11:43:50.418Z,26.07
2018-09-16T11:46:20.366Z,26.28
2018-09-16T11:48:51.773Z,26.16
2018-09-16T11:51:22.869Z,26.35
2018-09-16T11:53:53.725Z,26.64
2018-09-16T11:56:24.626Z,26.70
2018-09-16T11:58:56.890Z,26.76
2018-09-16T12:01:26.792Z,26.85
2018-09-16T12:03:57.617Z,26.95
2018-09-16T12:06:28.414Z,26.63
2018-09-16T12:08:59.859Z,26.53
2018-09-16T12:11:30.616Z,26.81
2018-09-16T12:14:01.500Z,27.00
2018-09-16T12:16:32.385Z,27.14
2018-09-16T12:19:03.779Z,27.25
2018-09-16T12:21:34.663Z,27.31
2018-09-16T12:24:05.506Z,27.41
2018-09-16T12:26:36.466Z,27.44
2018-09-16T12:29:08.093Z,27.48
2018-09-16T12:31:37.978Z,27.55
2018-09-16T12:34:08.714Z,27.50
2018-09-16T12:36:39.464Z,27.49
2018-09-16T12:39:13.127Z,27.79
2018-09-16T12:41:43.948Z,27.89
2018-09-16T12:44:14.433Z,28.04
2018-09-16T12:46:44.226Z,28.15
2018-09-16T12:49:15.085Z,27.80
2018-09-16T12:51:46.021Z,27.72
2018-09-16T12:54:16.646Z,27.33
2018-09-16T12:56:47.882Z,27.08
2018-09-16T12:59:18.662Z,27.01
2018-09-16T13:01:49.745Z,26.84
2018-09-16T13:04:20.549Z,27.02
2018-09-16T13:07:02.111Z,27.14
2018-09-16T13:09:32.609Z,27.34
2018-09-16T13:12:02.447Z,27.36
2018-09-16T13:14:32.341Z,27.52
2018-09-16T13:17:02.227Z,27.70
2018-09-16T13:19:32.228Z,27.90
2018-09-16T13:22:01.996Z,27.99
2018-09-16T13:24:32.521Z,27.88
2018-09-16T13:27:02.313Z,27.74
2018-09-16T13:29:32.264Z,27.87
2018-09-16T13:32:13.713Z,28.06
2018-09-16T13:34:44.728Z,28.33
2018-09-16T13:37:14.913Z,28.37
2018-09-16T13:39:44.752Z,28.31
2018-09-16T13:42:14.913Z,28.45
2018-09-16T13:44:45.518Z,28.52
2018-09-16T13:47:15.538Z,28.52
2018-09-16T13:49:45.654Z,28.52
2018-09-16T13:52:15.554Z,28.69
2018-09-16T13:54:45.718Z,28.72
2018-09-16T13:57:16.469Z,28.86
2018-09-16T13:59:46.314Z,28.97
2018-09-16T14:02:16.309Z,29.01
2018-09-16T14:04:46.482Z,28.94
2018-09-16T14:07:16.333Z,29.04
2018-09-16T14:09:46.421Z,29.04
2018-09-16T14:12:16.340Z,29.20
2018-09-16T14:14:48.024Z,29.25
2018-09-16T14:17:18.583Z,29.30
2018-09-16T14:19:49.515Z,29.32
2018-09-16T14:22:20.646Z,29.23
2018-09-16T14:24:51.631Z,29.06
2018-09-16T14:27:22.884Z,28.99
2018-09-16T14:29:53.996Z,28.77
2018-09-16T14:32:24.876Z,28.74
2018-09-16T14:34:55.683Z,28.47
2018-09-16T14:37:26.662Z,28.43
2018-09-16T14:39:57.376Z,28.32
2018-09-16T14:42:28.893Z,28.39
2018-09-16T14:44:59.657Z,28.54
2018-09-16T14:47:30.543Z,28.50
2018-09-16T14:50:01.444Z,28.28
2018-09-16T14:52:32.423Z,27.89
2018-09-16T14:55:03.665Z,27.53
2018-09-16T14:57:34.666Z,27.45
2018-09-16T15:00:05.489Z,27.34
2018-09-16T15:02:36.918Z,27.41
2018-09-16T15:05:07.881Z,26.79
2018-09-16T15:07:38.652Z,27.10
2018-09-16T15:10:09.725Z,27.23
2018-09-16T15:12:40.718Z,27.16
2018-09-16T15:15:10.602Z,27.16
2018-09-16T15:17:41.297Z,27.09
2018-09-16T15:20:13.092Z,27.09
2018-09-16T15:22:43.502Z,27.04
2018-09-16T15:25:14.405Z,26.85
2018-09-16T15:27:46.169Z,26.95
2018-09-16T15:30:16.971Z,27.04
2018-09-16T15:32:47.671Z,26.74
2018-09-16T15:35:18.408Z,26.43
2018-09-16T15:37:49.769Z,26.40
2018-09-16T15:40:21.273Z,26.44
2018-09-16T15:42:51.761Z,26.49
2018-09-16T15:45:22.688Z,26.55
2018-09-16T15:47:54.739Z,26.47
2018-09-16T15:50:24.737Z,26.54
2018-09-16T15:52:55.422Z,26.52
2018-09-16T15:55:26.921Z,26.53
2018-09-16T15:57:57.705Z,26.51
2018-09-16T16:00:28.639Z,26.46
2018-09-16T16:02:59.423Z,26.39
2018-09-16T16:05:30.799Z,26.30
2018-09-16T16:08:01.579Z,26.23
2018-09-16T16:10:32.747Z,26.17
2018-09-16T16:13:03.735Z,26.13
2018-09-16T16:15:34.741Z,26.04
2018-09-16T16:18:05.512Z,25.90
2018-09-16T16:20:37.975Z,25.78
2018-09-16T16:23:07.815Z,25.68
2018-09-16T16:25:39.060Z,25.58
2018-09-16T16:28:09.661Z,25.48
2018-09-16T16:30:40.688Z,25.40
2018-09-16T16:33:11.568Z,25.30
2018-09-16T16:35:42.705Z,25.20
2018-09-16T16:38:13.932Z,25.12
2018-09-16T16:40:44.997Z,24.96
2018-09-16T16:43:15.629Z,24.87
2018-09-16T16:45:47.009Z,24.73
2018-09-16T16:48:17.801Z,24.60
2018-09-16T16:50:48.814Z,24.50
2018-09-16T16:53:19.602Z,24.41
2018-09-16T16:55:50.553Z,24.32
2018-09-16T16:58:21.488Z,24.22
2018-09-16T17:00:52.601Z,24.10
2018-09-16T17:03:23.913Z,23.97
2018-09-16T17:05:54.724Z,23.89
2018-09-16T17:08:25.504Z,23.84
2018-09-16T17:10:56.675Z,23.76
2018-09-16T17:13:31.181Z,23.69
2018-09-16T17:16:01.819Z,23.59
2018-09-16T17:18:31.669Z,23.43
2018-09-16T17:21:01.748Z,23.30
2018-09-16T17:23:31.803Z,23.15
2018-09-16T17:26:03.291Z,23.08
2018-09-16T17:28:34.091Z,22.95
2018-09-16T17:31:04.745Z,22.90
2018-09-16T17:33:35.746Z,22.85
2018-09-16T17:36:07.416Z,22.77
2018-09-16T17:38:37.933Z,22.62
2018-09-16T17:41:08.646Z,22.41
2018-09-16T17:43:39.510Z,22.20
2018-09-16T17:46:10.763Z,22.07
2018-09-16T17:48:41.656Z,22.09
2018-09-16T17:51:12.709Z,21.86
2018-09-16T17:53:43.545Z,21.72
2018-09-16T17:56:14.989Z,21.56
2018-09-16T17:58:45.664Z,21.43
2018-09-16T18:01:16.707Z,21.24
2018-09-16T18:03:47.813Z,21.23
2018-09-16T18:06:18.812Z,21.15
2018-09-16T18:08:49.760Z,21.07
2018-09-16T18:11:21.551Z,20.96
2018-09-16T18:13:51.516Z,20.87
2018-09-16T18:16:22.740Z,20.77
2018-09-16T18:18:53.699Z,20.67
2018-09-16T18:21:24.910Z,20.59
2018-09-16T18:24:01.761Z,20.52
2018-09-16T18:26:31.688Z,20.15
2018-09-16T18:29:01.468Z,20.12
2018-09-16T18:31:32.416Z,20.01
2018-09-16T18:34:02.306Z,19.98
2018-09-16T18:36:32.386Z,20.04
2018-09-16T18:39:02.912Z,19.96
2018-09-16T18:41:32.787Z,19.99
2018-09-16T18:44:03.365Z,19.93
2018-09-16T18:46:34.073Z,19.82
2018-09-16T18:49:05.117Z,19.60
2018-09-16T18:51:36.665Z,19.41
2018-09-16T18:54:06.549Z,19.39
2018-09-16T18:56:38.133Z,19.43
2018-09-16T18:59:08.837Z,19.42
2018-09-16T19:01:39.970Z,19.40
2018-09-16T19:04:10.804Z,19.34
2018-09-16T19:06:41.727Z,19.32
2018-09-16T19:09:12.829Z,19.32
2018-09-16T19:11:43.878Z,19.31
2018-09-16T19:14:15.780Z,19.28
2018-09-16T19:16:45.966Z,19.23
2018-09-16T19:19:16.739Z,19.19
2018-09-16T19:21:47.712Z,19.15
2018-09-16T19:24:18.814Z,19.09
2018-09-16T19:26:50.079Z,19.02
2018-09-16T19:29:21.400Z,18.97
2018-09-16T19:31:51.623Z,18.92
2018-09-16T19:34:22.271Z,18.86
2018-09-16T19:36:53.550Z,18.83
2018-09-16T19:39:23.321Z,18.78
2018-09-16T19:41:55.300Z,18.73
2018-09-16T19:44:25.953Z,18.67
2018-09-16T19:46:56.780Z,18.61
2018-09-16T19:49:27.888Z,18.58
2018-09-16T19:51:58.897Z,18.51
2018-09-16T19:54:29.741Z,18.47
2018-09-16T19:57:01.439Z,18.43
2018-09-16T19:59:31.834Z,18.38
2018-09-16T20:02:03.376Z,18.32
2018-09-16T20:04:34.009Z,18.28
2018-09-16T20:07:04.804Z,18.24
2018-09-16T20:09:35.856Z,18.17
2018-09-16T20:12:07.194Z,18.14
2018-09-16T20:14:38.311Z,18.08
2018-09-16T20:17:12.123Z,18.03
2018-09-16T20:19:42.513Z,17.99
2018-09-16T20:22:12.561Z,17.94
2018-09-16T20:24:42.538Z,17.90
2018-09-16T20:27:12.517Z,17.86
2018-09-16T20:29:43.992Z,17.81
2018-09-16T20:32:15.364Z,17.77
2018-09-16T20:34:46.163Z,17.69
2018-09-16T20:37:16.864Z,17.68
2018-09-16T20:39:47.800Z,17.64
2018-09-16T20:42:18.583Z,17.58
2018-09-16T20:44:49.781Z,17.54
2018-09-16T20:47:21.569Z,17.51
2018-09-16T20:49:51.429Z,17.46
2018-09-16T20:52:22.914Z,17.41
2018-09-16T20:54:53.923Z,17.36
2018-09-16T20:57:25.015Z,17.30
2018-09-16T20:59:55.993Z,17.27
2018-09-16T21:02:26.729Z,17.22
2018-09-16T21:04:57.753Z,17.19
2018-09-16T21:07:28.854Z,17.15
2018-09-16T21:10:00.287Z,17.09
2018-09-16T21:12:31.488Z,17.05
2018-09-16T21:15:01.565Z,17.00
2018-09-16T21:17:32.597Z,16.97
2018-09-16T21:20:03.636Z,16.92
2018-09-16T21:22:34.805Z,16.88
2018-09-16T21:25:06.196Z,16.84
2018-09-16T21:27:36.671Z,16.79
2018-09-16T21:30:07.666Z,16.75
2018-09-16T21:32:38.654Z,16.72
2018-09-16T21:35:09.761Z,16.68
2018-09-16T21:37:40.564Z,16.63
2018-09-16T21:40:11.925Z,16.59
2018-09-16T21:42:42.748Z,16.56
2018-09-16T21:45:13.629Z,16.53
2018-09-16T21:47:44.383Z,16.49
2018-09-16T21:50:15.718Z,16.47
2018-09-16T21:52:46.667Z,16.44
2018-09-16T21:55:17.457Z,16.42
2018-09-16T21:57:48.728Z,16.39
2018-09-16T22:00:20.097Z,16.36
2018-09-16T22:02:50.669Z,16.32
2018-09-16T22:05:21.437Z,16.29
2018-09-16T22:07:53.035Z,16.26
2018-09-16T22:10:23.658Z,16.24
2018-09-16T22:12:54.445Z,16.24
2018-09-16T22:15:25.721Z,16.20
2018-09-16T22:17:56.465Z,16.17
2018-09-16T22:20:27.881Z,16.12
2018-09-16T22:22:58.763Z,16.08
2018-09-16T22:25:29.597Z,16.04
2018-09-16T22:28:00.341Z,16.00
2018-09-16T22:30:31.828Z,15.96
2018-09-16T22:33:02.784Z,15.94
2018-09-16T22:35:33.573Z,15.90
2018-09-16T22:38:04.824Z,15.87
2018-09-16T22:40:35.660Z,15.85
2018-09-16T22:43:08.141Z,15.82
2018-09-16T22:45:38.054Z,15.78
2018-09-16T22:48:08.627Z,15.75
2018-09-16T22:50:39.592Z,15.73
2018-09-16T22:53:10.857Z,15.69
2018-09-16T22:55:41.697Z,15.46
2018-09-16T22:58:12.421Z,15.15
2018-09-16T23:00:43.793Z,14.90
2018-09-16T23:03:14.542Z,14.73
2018-09-16T23:05:45.361Z,14.52
2018-09-16T23:08:15.867Z,14.51
2018-09-16T23:10:46.640Z,14.35
2018-09-16T23:13:17.579Z,14.35
2018-09-16T23:15:48.464Z,14.38
2018-09-16T23:18:19.753Z,14.29
2018-09-16T23:20:52.176Z,14.17
2018-09-16T23:23:22.397Z,14.12
2018-09-16T23:25:52.733Z,14.06
2018-09-16T23:28:23.568Z,14.07
2018-09-16T23:30:55.033Z,14.02
2018-09-16T23:33:25.825Z,14.07
2018-09-16T23:35:56.578Z,14.07
2018-09-16T23:38:27.724Z,14.03
2018-09-16T23:40:58.818Z,13.91
2018-09-16T23:43:29.565Z,14.00
2018-09-16T23:46:00.386Z,13.98
2018-09-16T23:48:31.817Z,13.97
2018-09-16T23:51:02.592Z,13.91
2018-09-16T23:53:33.500Z,13.98
2018-09-16T23:56:04.734Z,13.98
2018-09-16T23:58:35.633Z,13.96
